createdAt,value
2019-03-10T00:00:42.021Z,4.15
2019-03-10T00:03:10.418Z,8.03
2019-03-10T00:05:38.861Z,7.05
2019-03-10T00:08:08.149Z,9.10
2019-03-10T00:10:36.729Z,8.95
2019-03-10T00:13:05.242Z,4.42
2019-03-10T00:15:33.714Z,5.03
2019-03-10T00:18:02.143Z,8.38
2019-03-10T00:20:30.612Z,6.00
2019-03-10T00:22:58.936Z,8.83
2019-03-10T00:25:27.403Z,7.58
2019-03-10T00:27:55.892Z,15.48
2019-03-10T00:30:24.362Z,6.67
2019-03-10T00:32:52.866Z,5.80
2019-03-10T00:35:21.289Z,5.97
2019-03-10T00:37:50.057Z,8.10
2019-03-10T00:40:33.944Z,8.90
2019-03-10T00:43:28.266Z,5.67
2019-03-10T00:46:22.848Z,6.78
2019-03-10T00:49:29.322Z,6.83
2019-03-10T00:52:06.446Z,7.17
2019-03-10T00:54:34.757Z,10.15
2019-03-10T00:57:03.242Z,8.25
2019-03-10T00:59:32.225Z,10.30
2019-03-10T01:02:00.717Z,12.10
2019-03-10T01:04:30.505Z,12.33
2019-03-10T01:07:01.395Z,5.65
2019-03-10T01:09:29.001Z,5.70
2019-03-10T01:11:57.491Z,5.00
2019-03-10T01:14:25.942Z,14.95
2019-03-10T01:16:54.537Z,6.05
2019-03-10T01:19:23.314Z,3.75
2019-03-10T01:21:51.756Z,12.73
2019-03-10T01:24:20.400Z,8.40
2019-03-10T01:26:48.826Z,7.30
2019-03-10T01:29:17.403Z,4.65
2019-03-10T01:32:13.225Z,10.18
2019-03-10T01:34:53.648Z,6.20
2019-03-10T01:37:22.192Z,11.15
2019-03-10T01:39:50.610Z,8.75
2019-03-10T01:42:18.988Z,7.60
2019-03-10T01:44:47.480Z,2.92
2019-03-10T01:47:15.985Z,9.38
2019-03-10T01:49:44.359Z,17.07
2019-03-10T01:52:12.740Z,8.13
2019-03-10T01:54:41.219Z,8.80
2019-03-10T01:57:09.645Z,4.78
2019-03-10T01:59:38.192Z,7.90
2019-03-10T02:02:06.549Z,3.65
2019-03-10T02:04:35.063Z,8.85
2019-03-10T02:07:03.495Z,5.47
2019-03-10T02:09:31.970Z,5.90
2019-03-10T02:12:00.467Z,10.23
2019-03-10T02:14:28.830Z,5.10
2019-03-10T02:16:57.312Z,4.95
2019-03-10T02:19:25.944Z,9.33
2019-03-10T02:21:54.457Z,11.88
2019-03-10T02:24:24.041Z,20.20
2019-03-10T02:26:52.698Z,8.93
2019-03-10T02:29:21.255Z,11.25
2019-03-10T02:31:49.969Z,15.45
2019-03-10T02:34:18.593Z,8.73
2019-03-10T02:36:47.238Z,4.40
2019-03-10T02:39:15.752Z,15.13
2019-03-10T02:41:44.226Z,11.15
2019-03-10T02:44:12.903Z,3.10
2019-03-10T02:46:41.595Z,11.00
2019-03-10T02:49:10.054Z,3.33
2019-03-10T02:51:38.618Z,6.95
2019-03-10T02:54:07.057Z,4.00
2019-03-10T02:56:35.410Z,8.33
2019-03-10T02:59:03.866Z,7.10
2019-03-10T03:01:32.236Z,6.67
2019-03-10T03:04:00.651Z,3.95
2019-03-10T03:06:29.233Z,4.95
2019-03-10T03:08:57.613Z,5.20
2019-03-10T03:11:26.007Z,6.62
2019-03-10T03:13:54.477Z,6.30
2019-03-10T03:16:22.866Z,5.95
2019-03-10T03:18:51.253Z,5.83
2019-03-10T03:21:19.740Z,7.60
2019-03-10T03:23:48.124Z,9.23
2019-03-10T03:26:16.565Z,10.63
2019-03-10T03:28:45.072Z,7.08
2019-03-10T03:31:13.648Z,10.88
2019-03-10T03:33:42.284Z,9.15
2019-03-10T03:36:22.806Z,14.70
2019-03-10T03:38:54.468Z,4.95
2019-03-10T03:41:26.732Z,11.80
2019-03-10T03:43:55.156Z,7.28
2019-03-10T03:46:23.574Z,7.25
2019-03-10T03:48:51.918Z,4.37
2019-03-10T03:51:20.387Z,8.58
2019-03-10T03:53:48.842Z,8.53
2019-03-10T03:56:17.287Z,3.85
2019-03-10T03:58:45.844Z,3.90
2019-03-10T04:01:17.232Z,8.33
2019-03-10T04:03:48.693Z,8.68
2019-03-10T04:06:17.111Z,7.70
2019-03-10T04:08:45.593Z,4.67
2019-03-10T04:11:14.093Z,10.48
2019-03-10T04:13:42.452Z,7.50
2019-03-10T04:16:10.835Z,6.22
2019-03-10T04:18:41.334Z,5.72
2019-03-10T04:21:09.726Z,8.35
2019-03-10T04:23:38.188Z,8.50
2019-03-10T04:26:06.720Z,11.48
2019-03-10T04:28:36.909Z,10.90
2019-03-10T04:33:33.315Z,11.15
2019-03-10T04:36:01.847Z,9.35
2019-03-10T04:38:31.691Z,6.95
2019-03-10T04:41:00.087Z,9.10
2019-03-10T04:43:28.613Z,7.35
2019-03-10T04:45:57.042Z,18.67
2019-03-10T04:48:25.710Z,14.25
2019-03-10T04:50:54.113Z,17.55
2019-03-10T04:53:22.598Z,10.03
2019-03-10T04:55:52.846Z,17.87
2019-03-10T05:00:52.380Z,9.65
2019-03-10T05:05:48.584Z,10.13
2019-03-10T05:08:16.992Z,13.10
2019-03-10T05:10:45.404Z,12.33
2019-03-10T05:13:13.923Z,7.40
2019-03-10T05:15:42.368Z,18.35
2019-03-10T05:18:11.012Z,23.80
2019-03-10T05:20:39.492Z,8.98
2019-03-10T05:23:28.478Z,7.72
2019-03-10T05:25:56.969Z,15.08
2019-03-10T05:28:25.440Z,12.73
2019-03-10T05:30:56.867Z,15.03
2019-03-10T05:33:25.471Z,10.32
2019-03-10T05:35:53.954Z,17.48
2019-03-10T05:38:22.483Z,10.58
2019-03-10T05:40:51.006Z,12.43
2019-03-10T05:43:19.577Z,10.78
2019-03-10T05:45:48.109Z,13.28
2019-03-10T05:48:16.775Z,10.68
2019-03-10T05:50:45.217Z,10.70
2019-03-10T05:53:13.614Z,10.65
2019-03-10T05:55:42.204Z,16.80
2019-03-10T05:58:10.702Z,10.60
2019-03-10T06:00:42.992Z,8.33
2019-03-10T06:03:09.339Z,7.47
2019-03-10T06:05:37.850Z,18.70
2019-03-10T06:08:06.283Z,10.63
2019-03-10T06:10:34.735Z,11.33
2019-03-10T06:13:03.189Z,9.33
2019-03-10T06:15:31.734Z,14.07
2019-03-10T06:18:12.527Z,11.73
2019-03-10T06:22:58.213Z,11.33
2019-03-10T06:25:26.618Z,13.85
2019-03-10T06:27:57.653Z,13.28
2019-03-10T06:30:26.035Z,10.58
2019-03-10T06:32:54.516Z,8.70
2019-03-10T06:35:23.001Z,11.68
2019-03-10T06:37:51.393Z,13.05
2019-03-10T06:40:19.858Z,13.13
2019-03-10T06:42:48.190Z,16.57
2019-03-10T06:45:16.604Z,16.10
2019-03-10T06:47:45.083Z,16.20
2019-03-10T06:50:13.757Z,10.80
2019-03-10T06:52:42.179Z,16.48
2019-03-10T06:55:10.606Z,12.95
2019-03-10T06:57:38.982Z,10.03
2019-03-10T07:00:10.747Z,13.08
2019-03-10T07:02:39.246Z,13.45
2019-03-10T07:05:10.351Z,13.70
2019-03-10T07:07:38.767Z,6.42
2019-03-10T07:10:15.195Z,8.78
2019-03-10T07:12:43.537Z,11.43
2019-03-10T07:15:13.141Z,10.63
2019-03-10T07:17:41.727Z,13.55
2019-03-10T07:20:18.674Z,11.45
2019-03-10T07:22:47.135Z,12.23
2019-03-10T07:25:15.638Z,11.97
2019-03-10T07:27:51.554Z,11.35
2019-03-10T07:30:27.028Z,32.35
2019-03-10T07:32:57.111Z,10.35
2019-03-10T07:35:27.235Z,9.65
2019-03-10T07:37:57.245Z,11.97
2019-03-10T07:40:44.061Z,14.53
2019-03-10T07:43:16.961Z,9.75
2019-03-10T07:45:47.170Z,8.83
2019-03-10T07:48:29.239Z,14.00
2019-03-10T07:51:10.826Z,13.30
2019-03-10T07:53:50.189Z,12.45
2019-03-10T07:56:32.629Z,10.77
2019-03-10T07:59:02.717Z,19.57
2019-03-10T08:01:49.167Z,13.28
2019-03-10T08:04:22.187Z,9.50
2019-03-10T08:06:58.319Z,10.68
2019-03-10T08:09:31.202Z,18.35
2019-03-10T08:12:01.519Z,16.77
2019-03-10T08:17:01.264Z,17.10
2019-03-10T08:24:34.762Z,13.90
2019-03-10T08:27:05.055Z,9.48
2019-03-10T08:32:29.924Z,11.60
2019-03-10T08:35:08.939Z,9.75
2019-03-10T08:37:39.330Z,16.80
2019-03-10T08:43:08.989Z,12.33
2019-03-10T08:45:39.073Z,11.53
2019-03-10T08:48:27.246Z,10.28
2019-03-10T08:51:07.249Z,14.65
2019-03-10T08:53:37.424Z,8.58
2019-03-10T08:59:01.794Z,13.22
2019-03-10T09:01:48.225Z,10.88
2019-03-10T09:04:36.389Z,18.00
2019-03-10T09:07:18.338Z,8.18
2019-03-10T09:09:57.832Z,13.53
2019-03-10T09:12:28.028Z,14.90
2019-03-10T09:15:06.824Z,10.58
2019-03-10T09:17:40.036Z,14.35
2019-03-10T09:20:10.575Z,10.60
2019-03-10T09:22:50.117Z,14.35
2019-03-10T09:25:36.529Z,12.53
2019-03-10T09:28:06.742Z,13.53
2019-03-10T09:30:45.748Z,5.42
2019-03-10T09:33:27.464Z,9.00
2019-03-10T09:35:57.541Z,6.55
2019-03-10T09:38:32.618Z,4.97
2019-03-10T09:41:21.892Z,9.60
2019-03-10T09:44:07.314Z,6.78
2019-03-10T09:46:37.407Z,5.72
2019-03-10T09:49:24.239Z,11.28
2019-03-10T09:52:12.440Z,11.95
2019-03-10T09:54:54.605Z,11.03
2019-03-10T09:57:24.816Z,10.48
2019-03-10T10:02:24.165Z,15.95
2019-03-10T10:05:02.916Z,9.73
2019-03-10T10:07:48.005Z,17.48
2019-03-10T10:10:24.312Z,14.33
2019-03-10T10:12:54.355Z,10.68
2019-03-10T10:15:24.431Z,6.67
2019-03-10T10:18:00.452Z,22.98
2019-03-10T10:20:47.371Z,10.58
2019-03-10T10:23:35.413Z,11.83
2019-03-10T10:26:08.045Z,15.80
2019-03-10T10:28:47.349Z,12.70
2019-03-10T10:31:20.123Z,13.93
2019-03-10T10:33:59.423Z,10.20
2019-03-10T10:36:45.649Z,16.67
2019-03-10T10:39:22.139Z,22.42
2019-03-10T10:41:55.410Z,16.27
2019-03-10T10:44:28.367Z,9.35
2019-03-10T10:46:58.536Z,18.85
2019-03-10T10:49:40.510Z,23.35
2019-03-10T10:52:16.709Z,16.95
2019-03-10T10:54:49.768Z,14.40
2019-03-10T10:57:22.902Z,19.48
2019-03-10T10:59:55.886Z,12.60
2019-03-10T11:02:45.461Z,12.13
2019-03-10T11:05:24.665Z,11.50
2019-03-10T11:08:01.118Z,24.87
2019-03-10T11:10:37.375Z,20.55
2019-03-10T11:13:18.140Z,14.20
2019-03-10T11:15:50.859Z,14.63
2019-03-10T11:18:37.466Z,18.75
2019-03-10T11:21:10.296Z,11.18
2019-03-10T11:23:46.120Z,17.02
2019-03-10T11:26:16.242Z,17.48
2019-03-10T11:29:03.962Z,15.30
2019-03-10T11:31:40.110Z,20.70
2019-03-10T11:34:12.916Z,14.45
2019-03-10T11:36:43.011Z,13.55
2019-03-10T11:39:15.689Z,13.62
2019-03-10T11:41:48.926Z,21.10
2019-03-10T11:44:28.194Z,21.27
2019-03-10T11:46:58.345Z,15.03
2019-03-10T11:49:29.966Z,12.85
2019-03-10T11:52:03.085Z,19.42
2019-03-10T11:54:39.400Z,19.23
2019-03-10T11:57:12.557Z,24.40
2019-03-10T11:59:45.356Z,7.85
2019-03-10T12:02:31.923Z,10.65
2019-03-10T12:05:13.974Z,8.20
2019-03-10T12:07:46.767Z,11.88
2019-03-10T12:10:15.463Z,9.55
2019-03-10T12:12:44.190Z,8.30
2019-03-10T12:15:14.023Z,9.43
2019-03-10T12:17:49.075Z,6.37
2019-03-10T12:20:17.524Z,9.40
2019-03-10T12:22:46.128Z,6.85
2019-03-10T12:25:14.499Z,29.67
2019-03-10T12:27:43.062Z,10.70
2019-03-10T12:30:13.572Z,12.25
2019-03-10T12:32:43.752Z,9.70
2019-03-10T12:35:12.277Z,9.23
2019-03-10T12:37:40.786Z,6.47
2019-03-10T12:40:12.677Z,8.90
2019-03-10T12:42:41.169Z,10.20
2019-03-10T12:45:10.953Z,3.85
2019-03-10T12:47:39.448Z,17.87
2019-03-10T12:50:12.927Z,18.90
2019-03-10T12:52:41.462Z,6.92
2019-03-10T12:55:10.367Z,7.87
2019-03-10T12:57:38.982Z,10.20
2019-03-10T13:00:13.287Z,7.33
2019-03-10T13:02:41.075Z,7.25
2019-03-10T13:05:10.200Z,5.92
2019-03-10T13:07:38.708Z,11.53
2019-03-10T13:10:07.071Z,8.00
2019-03-10T13:12:35.663Z,4.22
2019-03-10T13:15:05.968Z,8.35
2019-03-10T13:20:02.398Z,11.40
2019-03-10T13:22:30.936Z,9.23
2019-03-10T13:25:01.167Z,12.05
2019-03-10T13:29:58.061Z,8.25
2019-03-10T13:32:26.784Z,8.38
2019-03-10T13:34:55.433Z,7.12
2019-03-10T13:37:23.998Z,8.03
2019-03-10T13:39:52.469Z,8.60
2019-03-10T13:42:21.080Z,12.20
2019-03-10T13:44:49.534Z,7.50
2019-03-10T13:47:18.038Z,7.12
2019-03-10T13:49:46.644Z,6.72
2019-03-10T13:52:15.243Z,10.00
2019-03-10T13:54:43.873Z,9.53
2019-03-10T13:57:14.017Z,10.03
2019-03-10T13:59:42.685Z,15.75
2019-03-10T14:02:11.087Z,13.08
2019-03-10T14:04:39.747Z,6.35
2019-03-10T14:07:08.175Z,8.23
2019-03-10T14:09:36.822Z,7.03
2019-03-10T14:12:05.419Z,8.15
2019-03-10T14:14:33.773Z,5.75
2019-03-10T14:17:02.183Z,7.95
2019-03-10T14:19:30.577Z,9.50
2019-03-10T14:21:59.128Z,8.25
2019-03-10T14:24:27.540Z,4.65
2019-03-10T14:26:56.009Z,7.83
2019-03-10T14:29:24.742Z,8.00
2019-03-10T14:31:53.540Z,4.53
2019-03-10T14:34:22.060Z,6.47
2019-03-10T14:36:50.611Z,8.63
2019-03-10T14:39:19.308Z,5.35
2019-03-10T14:41:47.774Z,8.65
2019-03-10T14:44:16.338Z,7.35
2019-03-10T14:46:46.855Z,4.87
2019-03-10T14:49:23.077Z,7.92
2019-03-10T14:51:47.195Z,8.18
2019-03-10T14:54:15.679Z,9.13
2019-03-10T14:56:44.235Z,2.98
2019-03-10T14:59:12.699Z,4.45
2019-03-10T15:01:41.235Z,2.95
2019-03-10T15:04:09.760Z,6.40
2019-03-10T15:06:38.649Z,6.25
2019-03-10T15:09:08.087Z,6.53
2019-03-10T15:11:36.541Z,4.00
2019-03-10T15:14:05.406Z,3.65
2019-03-10T15:16:34.096Z,2.75
2019-03-10T15:19:02.713Z,7.53
2019-03-10T15:21:31.262Z,3.58
2019-03-10T15:23:59.864Z,4.72
2019-03-10T15:26:28.325Z,7.17
2019-03-10T15:28:56.789Z,6.00
2019-03-10T15:31:25.234Z,4.90
2019-03-10T15:33:53.722Z,10.78
2019-03-10T15:36:22.427Z,6.10
2019-03-10T15:38:50.942Z,4.47
2019-03-10T15:41:19.444Z,4.37
2019-03-10T15:43:47.801Z,5.58
2019-03-10T15:46:16.230Z,9.00
2019-03-10T15:48:44.797Z,4.15
2019-03-10T15:51:13.217Z,11.22
2019-03-10T15:53:41.707Z,7.90
2019-03-10T15:56:10.140Z,5.62
2019-03-10T15:58:38.738Z,8.53
2019-03-10T16:01:07.375Z,5.45
2019-03-10T16:03:35.885Z,3.65
2019-03-10T16:06:04.310Z,3.55
2019-03-10T16:08:32.765Z,4.47
2019-03-10T16:11:01.207Z,4.33
2019-03-10T16:13:29.642Z,4.15
2019-03-10T16:15:58.156Z,5.62
2019-03-10T16:18:26.490Z,5.80
2019-03-10T16:20:54.922Z,5.20
2019-03-10T16:23:23.437Z,6.97
2019-03-10T16:25:51.923Z,4.65
2019-03-10T16:28:20.491Z,11.12
2019-03-10T16:30:48.994Z,9.65
2019-03-10T16:33:17.487Z,7.80
2019-03-10T16:35:45.936Z,6.83
2019-03-10T16:38:14.412Z,11.60
2019-03-10T16:40:43.030Z,5.67
2019-03-10T16:43:11.472Z,7.00
2019-03-10T16:45:39.871Z,11.50
2019-03-10T16:48:08.298Z,9.20
2019-03-10T16:50:36.733Z,11.18
2019-03-10T16:53:05.188Z,12.15
2019-03-10T16:55:33.699Z,12.35
2019-03-10T16:58:02.089Z,9.13
2019-03-10T17:00:30.706Z,9.15
2019-03-10T17:02:59.154Z,11.05
2019-03-10T17:05:29.167Z,10.63
2019-03-10T17:07:57.853Z,16.10
2019-03-10T17:10:27.298Z,11.22
2019-03-10T17:12:57.439Z,11.75
2019-03-10T17:15:26.205Z,13.35
2019-03-10T17:17:54.783Z,8.85
2019-03-10T17:20:23.262Z,10.32
2019-03-10T17:22:51.791Z,8.55
2019-03-10T17:25:20.198Z,8.45
2019-03-10T17:27:48.794Z,7.30
2019-03-10T17:30:25.251Z,5.95
2019-03-10T17:32:53.932Z,5.85
2019-03-10T17:35:22.402Z,7.12
2019-03-10T17:37:52.507Z,6.40
2019-03-10T17:40:23.352Z,7.35
2019-03-10T17:42:51.930Z,7.85
2019-03-10T17:45:21.461Z,10.63
2019-03-10T17:47:50.049Z,8.10
2019-03-10T17:50:19.114Z,6.25
2019-03-10T17:52:48.030Z,7.65
2019-03-10T17:55:20.746Z,5.20
2019-03-10T17:57:49.142Z,8.15
2019-03-10T18:00:20.086Z,4.40
2019-03-10T18:02:48.509Z,5.08
2019-03-10T18:05:16.990Z,4.65
2019-03-10T18:07:45.483Z,4.83
2019-03-10T18:10:16.234Z,3.25
2019-03-10T18:12:44.634Z,4.65
2019-03-10T18:15:14.225Z,3.87
2019-03-10T18:17:42.727Z,4.78
2019-03-10T18:20:17.012Z,5.95
2019-03-10T18:22:45.463Z,2.72
2019-03-10T18:25:14.558Z,3.27
2019-03-10T18:27:43.145Z,1.65
2019-03-10T18:30:22.956Z,1.20
2019-03-10T18:32:53.929Z,3.45
2019-03-10T18:35:22.379Z,2.33
2019-03-10T18:37:50.774Z,1.07
2019-03-10T18:40:20.732Z,4.60
2019-03-10T18:42:49.219Z,2.10
2019-03-10T18:45:18.714Z,2.42
2019-03-10T18:47:47.324Z,5.10
2019-03-10T18:50:21.673Z,3.35
2019-03-10T18:52:50.521Z,2.77
2019-03-10T18:55:19.290Z,1.98
2019-03-10T18:57:47.750Z,1.27
2019-03-10T19:00:29.118Z,3.33
2019-03-10T19:02:57.583Z,4.22
2019-03-10T19:05:26.218Z,4.30
2019-03-10T19:07:54.956Z,4.40
2019-03-10T19:10:23.583Z,5.37
2019-03-10T19:12:51.979Z,5.58
2019-03-10T19:15:27.815Z,5.47
2019-03-10T19:17:56.254Z,8.58
2019-03-10T19:20:24.613Z,7.92
2019-03-10T19:22:53.048Z,9.75
2019-03-10T19:25:21.501Z,12.30
2019-03-10T19:27:49.982Z,7.40
2019-03-10T19:30:22.085Z,6.53
2019-03-10T19:32:50.521Z,13.03
2019-03-10T19:35:18.939Z,8.75
2019-03-10T19:37:50.357Z,9.48
2019-03-10T19:40:21.066Z,10.45
2019-03-10T19:42:52.592Z,8.43
2019-03-10T19:45:23.429Z,9.98
2019-03-10T19:47:51.805Z,10.58
2019-03-10T19:50:23.439Z,10.40
2019-03-10T19:52:52.361Z,9.48
2019-03-10T19:55:20.970Z,12.68
2019-03-10T19:57:52.278Z,10.60
2019-03-10T20:00:21.514Z,11.88
2019-03-10T20:02:49.891Z,10.63
2019-03-10T20:05:18.362Z,13.50
2019-03-10T20:07:46.807Z,12.45
2019-03-10T20:10:19.611Z,12.70
2019-03-10T20:12:48.017Z,10.80
2019-03-10T20:15:20.733Z,12.10
2019-03-10T20:17:49.227Z,10.60
2019-03-10T20:20:19.800Z,10.72
2019-03-10T20:22:48.237Z,10.35
2019-03-10T20:25:16.697Z,8.40
2019-03-10T20:27:45.168Z,9.53
2019-03-10T20:30:21.857Z,6.20
2019-03-10T20:32:51.903Z,9.95
2019-03-10T20:35:20.312Z,7.40
2019-03-10T20:37:48.753Z,6.72
2019-03-10T20:40:19.468Z,8.50
2019-03-10T20:42:48.046Z,7.90
2019-03-10T20:45:16.462Z,7.20
2019-03-10T20:47:45.082Z,8.30
2019-03-10T20:50:15.410Z,8.93
2019-03-10T20:52:43.837Z,8.15
2019-03-10T20:55:13.141Z,9.28
2019-03-10T20:57:41.510Z,14.17
2019-03-10T21:00:12.989Z,14.03
2019-03-10T21:02:41.438Z,13.75
2019-03-10T21:05:11.186Z,16.45
2019-03-10T21:07:39.683Z,15.68
2019-03-10T21:10:23.899Z,12.43
2019-03-10T21:12:52.314Z,13.25
2019-03-10T21:15:26.464Z,12.15
2019-03-10T21:17:55.289Z,10.98
2019-03-10T21:20:24.657Z,9.38
2019-03-10T21:22:53.240Z,17.02
2019-03-10T21:25:23.470Z,12.15
2019-03-10T21:30:21.650Z,8.73
2019-03-10T21:32:52.421Z,7.70
2019-03-10T21:35:20.842Z,11.20
2019-03-10T21:37:50.443Z,11.45
2019-03-10T21:40:24.337Z,11.33
2019-03-10T21:42:52.735Z,16.02
2019-03-10T21:45:21.248Z,10.63
2019-03-10T21:47:49.682Z,12.58
2019-03-10T21:50:18.947Z,11.63
2019-03-10T21:52:47.472Z,12.00
2019-03-10T21:55:17.016Z,9.58
2019-03-10T21:57:45.527Z,11.63
2019-03-10T22:00:16.394Z,14.20
2019-03-10T22:02:44.925Z,12.85
2019-03-10T22:05:14.562Z,7.40
2019-03-10T22:07:42.988Z,24.47
2019-03-10T22:10:26.432Z,12.85
2019-03-10T22:12:46.552Z,15.72
2019-03-10T22:15:17.359Z,13.62
2019-03-10T22:17:45.788Z,14.07
2019-03-10T22:20:15.346Z,21.90
2019-03-10T22:22:49.140Z,11.33
2019-03-10T22:27:42.198Z,22.73
2019-03-10T22:30:19.764Z,14.70
2019-03-10T22:32:48.271Z,15.55
2019-03-10T22:35:16.675Z,20.48
2019-03-10T22:37:45.135Z,23.27
2019-03-10T22:40:15.385Z,19.98
2019-03-10T22:45:19.484Z,20.27
2019-03-10T22:47:47.930Z,25.30
2019-03-10T22:50:17.161Z,20.77
2019-03-10T22:52:46.466Z,27.60
2019-03-10T22:55:15.633Z,24.77
2019-03-10T22:57:44.214Z,25.72
2019-03-10T23:00:31.421Z,29.15
2019-03-10T23:03:00.757Z,20.72
2019-03-10T23:05:29.425Z,20.48
2019-03-10T23:07:58.479Z,21.45
2019-03-10T23:10:26.847Z,31.68
2019-03-10T23:12:55.370Z,25.50
2019-03-10T23:15:23.932Z,22.62
2019-03-10T23:17:58.651Z,20.92
2019-03-10T23:20:27.086Z,31.52
2019-03-10T23:22:55.516Z,20.77
2019-03-10T23:25:23.956Z,24.07
2019-03-10T23:27:52.664Z,20.25
2019-03-10T23:30:21.045Z,24.30
2019-03-10T23:32:49.453Z,27.48
2019-03-10T23:35:17.907Z,23.15
2019-03-10T23:37:46.264Z,26.52
2019-03-10T23:40:15.946Z,29.23
2019-03-10T23:42:44.500Z,29.12
2019-03-10T23:45:19.413Z,21.05
2019-03-10T23:47:48.070Z,23.95
2019-03-10T23:50:18.083Z,15.65
2019-03-10T23:52:46.528Z,43.95
2019-03-10T23:55:14.995Z,26.45
2019-03-10T23:57:43.402Z,16.40
